sensor_id;sensor_type;location;lat;lon;timestamp;P1;durP1;ratioP1;P2;durP2;ratioP2
14396;SDS011;50653;47.810;13.022;2024-03-08T00:00:40;4.87;;;4.47;;
14396;SDS011;50653;47.810;13.022;2024-03-08T00:03:08;5.40;;;3.93;;
14396;SDS011;50653;47.810;13.022;2024-03-08T00:05:35;5.00;;;4.53;;
14396;SDS011;50653;47.810;13.022;2024-03-08T00:08:04;5.43;;;4.43;;
14396;SDS011;50653;47.810;13.022;2024-03-08T00:10:31;5.40;;;4.90;;
14396;SDS011;50653;47.810;13.022;2024-03-08T00:12:57;6.60;;;4.47;;
14396;SDS011;50653;47.810;13.022;2024-03-08T00:15:22;4.43;;;4.03;;
14396;SDS011;50653;47.810;13.022;2024-03-08T00:17:48;5.13;;;4.73;;
14396;SDS011;50653;47.810;13.022;2024-03-08T00:20:14;5.03;;;4.50;;
14396;SDS011;50653;47.810;13.022;2024-03-08T00:22:43;4.87;;;4.47;;
14396;SDS011;50653;47.810;13.022;2024-03-08T00:25:08;5.23;;;4.50;;
14396;SDS011;50653;47.810;13.022;2024-03-08T00:27:34;4.53;;;4.13;;
14396;SDS011;50653;47.810;13.022;2024-03-08T00:30:01;4.80;;;3.83;;
14396;SDS011;50653;47.810;13.022;2024-03-08T00:32:28;5.33;;;4.90;;
14396;SDS011;50653;47.810;13.022;2024-03-08T00:34:53;5.73;;;4.80;;
14396;SDS011;50653;47.810;13.022;2024-03-08T00:37:20;5.50;;;5.00;;
14396;SDS011;50653;47.810;13.022;2024-03-08T00:39:49;4.87;;;4.47;;
14396;SDS011;50653;47.810;13.022;2024-03-08T00:42:17;5.57;;;5.03;;
14396;SDS011;50653;47.810;13.022;2024-03-08T00:44:43;5.93;;;5.30;;
14396;SDS011;50653;47.810;13.022;2024-03-08T00:47:09;5.07;;;4.67;;
14396;SDS011;50653;47.810;13.022;2024-03-08T00:49:35;4.90;;;4.50;;
14396;SDS011;50653;47.810;13.022;2024-03-08T00:52:07;5.90;;;5.10;;
14396;SDS011;50653;47.810;13.022;2024-03-08T00:54:34;6.90;;;5.80;;
14396;SDS011;50653;47.810;13.022;2024-03-08T00:57:01;5.83;;;5.20;;
14396;SDS011;50653;47.810;13.022;2024-03-08T00:59:30;6.50;;;6.00;;
14396;SDS011;50653;47.810;13.022;2024-03-08T01:01:59;5.70;;;4.43;;
14396;SDS011;50653;47.810;13.022;2024-03-08T01:04:25;6.33;;;5.57;;
14396;SDS011;50653;47.810;13.022;2024-03-08T01:06:54;8.60;;;5.30;;
14396;SDS011;50653;47.810;13.022;2024-03-08T01:09:24;5.17;;;4.70;;
14396;SDS011;50653;47.810;13.022;2024-03-08T01:11:51;5.73;;;5.23;;
14396;SDS011;50653;47.810;13.022;2024-03-08T01:14:19;5.10;;;4.63;;
14396;SDS011;50653;47.810;13.022;2024-03-08T01:16:49;7.13;;;5.17;;
14396;SDS011;50653;47.810;13.022;2024-03-08T01:19:15;4.30;;;3.63;;
14396;SDS011;50653;47.810;13.022;2024-03-08T01:21:41;3.90;;;3.63;;
14396;SDS011;50653;47.810;13.022;2024-03-08T01:24:07;7.20;;;4.50;;
14396;SDS011;50653;47.810;13.022;2024-03-08T01:26:32;4.30;;;4.10;;
14396;SDS011;50653;47.810;13.022;2024-03-08T01:29:01;4.80;;;4.30;;
14396;SDS011;50653;47.810;13.022;2024-03-08T01:31:28;4.20;;;4.00;;
14396;SDS011;50653;47.810;13.022;2024-03-08T01:33:55;5.20;;;4.70;;
14396;SDS011;50653;47.810;13.022;2024-03-08T01:36:21;5.03;;;4.63;;
14396;SDS011;50653;47.810;13.022;2024-03-08T01:38:47;4.17;;;3.87;;
14396;SDS011;50653;47.810;13.022;2024-03-08T01:41:13;5.53;;;4.43;;
14396;SDS011;50653;47.810;13.022;2024-03-08T01:43:39;3.17;;;2.77;;
14396;SDS011;50653;47.810;13.022;2024-03-08T01:46:04;4.47;;;4.07;;
14396;SDS011;50653;47.810;13.022;2024-03-08T01:48:33;4.67;;;4.27;;
14396;SDS011;50653;47.810;13.022;2024-03-08T01:50:59;4.23;;;4.00;;
14396;SDS011;50653;47.810;13.022;2024-03-08T01:53:26;5.33;;;4.70;;
14396;SDS011;50653;47.810;13.022;2024-03-08T01:55:54;4.97;;;4.40;;
14396;SDS011;50653;47.810;13.022;2024-03-08T01:58:23;5.27;;;4.83;;
14396;SDS011;50653;47.810;13.022;2024-03-08T02:00:49;8.00;;;5.00;;
14396;SDS011;50653;47.810;13.022;2024-03-08T02:03:15;4.03;;;3.63;;
14396;SDS011;50653;47.810;13.022;2024-03-08T02:05:41;4.73;;;4.27;;
14396;SDS011;50653;47.810;13.022;2024-03-08T02:08:08;6.40;;;5.60;;
14396;SDS011;50653;47.810;13.022;2024-03-08T02:10:39;5.57;;;4.50;;
14396;SDS011;50653;47.810;13.022;2024-03-08T02:13:09;5.03;;;4.63;;
14396;SDS011;50653;47.810;13.022;2024-03-08T02:15:51;5.27;;;4.73;;
14396;SDS011;50653;47.810;13.022;2024-03-08T02:18:21;5.20;;;4.80;;
14396;SDS011;50653;47.810;13.022;2024-03-08T02:20:55;4.37;;;3.97;;
14396;SDS011;50653;47.810;13.022;2024-03-08T02:23:22;5.40;;;4.43;;
14396;SDS011;50653;47.810;13.022;2024-03-08T02:25:50;6.10;;;5.40;;
14396;SDS011;50653;47.810;13.022;2024-03-08T02:28:16;4.27;;;3.97;;
14396;SDS011;50653;47.810;13.022;2024-03-08T02:30:45;5.10;;;4.60;;
14396;SDS011;50653;47.810;13.022;2024-03-08T02:33:15;3.93;;;3.50;;
14396;SDS011;50653;47.810;13.022;2024-03-08T02:35:42;4.83;;;4.20;;
14396;SDS011;50653;47.810;13.022;2024-03-08T02:38:12;3.37;;;3.00;;
14396;SDS011;50653;47.810;13.022;2024-03-08T02:40:41;3.30;;;3.00;;
14396;SDS011;50653;47.810;13.022;2024-03-08T02:43:08;3.90;;;3.50;;
14396;SDS011;50653;47.810;13.022;2024-03-08T02:45:34;3.53;;;3.27;;
14396;SDS011;50653;47.810;13.022;2024-03-08T02:48:00;4.07;;;3.77;;
14396;SDS011;50653;47.810;13.022;2024-03-08T02:50:26;7.30;;;3.60;;
14396;SDS011;50653;47.810;13.022;2024-03-08T02:52:52;4.07;;;3.77;;
14396;SDS011;50653;47.810;13.022;2024-03-08T02:55:17;3.90;;;3.60;;
14396;SDS011;50653;47.810;13.022;2024-03-08T02:57:43;5.47;;;4.93;;
14396;SDS011;50653;47.810;13.022;2024-03-08T03:00:09;4.93;;;4.47;;
14396;SDS011;50653;47.810;13.022;2024-03-08T03:02:35;3.50;;;3.13;;
14396;SDS011;50653;47.810;13.022;2024-03-08T03:05:02;5.70;;;3.77;;
14396;SDS011;50653;47.810;13.022;2024-03-08T03:07:31;6.03;;;4.33;;
14396;SDS011;50653;47.810;13.022;2024-03-08T03:09:58;5.80;;;4.10;;
14396;SDS011;50653;47.810;13.022;2024-03-08T03:12:26;4.13;;;3.93;;
14396;SDS011;50653;47.810;13.022;2024-03-08T03:14:52;3.90;;;3.57;;
14396;SDS011;50653;47.810;13.022;2024-03-08T03:17:18;4.20;;;3.80;;
14396;SDS011;50653;47.810;13.022;2024-03-08T03:19:45;5.90;;;5.40;;
14396;SDS011;50653;47.810;13.022;2024-03-08T03:22:11;5.83;;;4.37;;
14396;SDS011;50653;47.810;13.022;2024-03-08T03:24:37;5.57;;;4.53;;
14396;SDS011;50653;47.810;13.022;2024-03-08T03:27:03;3.47;;;3.27;;
14396;SDS011;50653;47.810;13.022;2024-03-08T03:29:42;4.30;;;3.97;;
14396;SDS011;50653;47.810;13.022;2024-03-08T03:32:13;6.53;;;5.93;;
14396;SDS011;50653;47.810;13.022;2024-03-08T03:34:40;5.43;;;4.90;;
14396;SDS011;50653;47.810;13.022;2024-03-08T03:37:06;5.20;;;2.93;;
14396;SDS011;50653;47.810;13.022;2024-03-08T03:39:33;4.80;;;4.50;;
14396;SDS011;50653;47.810;13.022;2024-03-08T03:42:02;5.20;;;4.77;;
14396;SDS011;50653;47.810;13.022;2024-03-08T03:44:28;5.43;;;4.20;;
14396;SDS011;50653;47.810;13.022;2024-03-08T03:46:54;4.77;;;4.40;;
14396;SDS011;50653;47.810;13.022;2024-03-08T03:49:20;4.17;;;3.87;;
14396;SDS011;50653;47.810;13.022;2024-03-08T03:51:46;3.70;;;3.40;;
14396;SDS011;50653;47.810;13.022;2024-03-08T03:54:12;3.90;;;3.50;;
14396;SDS011;50653;47.810;13.022;2024-03-08T03:56:38;3.53;;;3.23;;
14396;SDS011;50653;47.810;13.022;2024-03-08T03:59:05;4.10;;;3.70;;
14396;SDS011;50653;47.810;13.022;2024-03-08T04:01:31;4.17;;;3.87;;
14396;SDS011;50653;47.810;13.022;2024-03-08T04:03:58;4.63;;;3.43;;
14396;SDS011;50653;47.810;13.022;2024-03-08T04:06:24;4.77;;;4.37;;
14396;SDS011;50653;47.810;13.022;2024-03-08T04:08:49;4.47;;;3.93;;
14396;SDS011;50653;47.810;13.022;2024-03-08T04:11:15;4.27;;;3.97;;
14396;SDS011;50653;47.810;13.022;2024-03-08T04:13:42;4.27;;;3.90;;
14396;SDS011;50653;47.810;13.022;2024-03-08T04:16:08;6.63;;;4.13;;
14396;SDS011;50653;47.810;13.022;2024-03-08T04:18:36;3.77;;;3.40;;
14396;SDS011;50653;47.810;13.022;2024-03-08T04:21:03;4.80;;;4.00;;
14396;SDS011;50653;47.810;13.022;2024-03-08T04:23:32;5.73;;;4.27;;
14396;SDS011;50653;47.810;13.022;2024-03-08T04:26:01;4.87;;;4.40;;
14396;SDS011;50653;47.810;13.022;2024-03-08T04:28:28;4.70;;;4.20;;
14396;SDS011;50653;47.810;13.022;2024-03-08T04:30:54;3.93;;;3.57;;
14396;SDS011;50653;47.810;13.022;2024-03-08T04:33:19;4.37;;;4.00;;
14396;SDS011;50653;47.810;13.022;2024-03-08T04:35:46;4.73;;;4.43;;
14396;SDS011;50653;47.810;13.022;2024-03-08T04:38:12;6.70;;;4.50;;
14396;SDS011;50653;47.810;13.022;2024-03-08T04:40:38;5.40;;;4.90;;
14396;SDS011;50653;47.810;13.022;2024-03-08T04:43:04;5.10;;;4.70;;
14396;SDS011;50653;47.810;13.022;2024-03-08T04:45:31;5.97;;;5.37;;
14396;SDS011;50653;47.810;13.022;2024-03-08T04:47:57;8.00;;;4.77;;
14396;SDS011;50653;47.810;13.022;2024-03-08T04:50:23;8.47;;;6.30;;
14396;SDS011;50653;47.810;13.022;2024-03-08T04:52:48;7.40;;;5.97;;
14396;SDS011;50653;47.810;13.022;2024-03-08T04:55:14;6.40;;;5.67;;
14396;SDS011;50653;47.810;13.022;2024-03-08T04:57:40;8.30;;;5.57;;
14396;SDS011;50653;47.810;13.022;2024-03-08T05:00:07;5.20;;;4.70;;
14396;SDS011;50653;47.810;13.022;2024-03-08T05:02:36;6.70;;;6.10;;
14396;SDS011;50653;47.810;13.022;2024-03-08T05:05:13;6.40;;;5.80;;
14396;SDS011;50653;47.810;13.022;2024-03-08T05:07:39;7.50;;;4.73;;
14396;SDS011;50653;47.810;13.022;2024-03-08T05:10:10;6.27;;;5.67;;
14396;SDS011;50653;47.810;13.022;2024-03-08T05:12:36;5.03;;;4.53;;
14396;SDS011;50653;47.810;13.022;2024-03-08T05:15:04;5.03;;;4.03;;
14396;SDS011;50653;47.810;13.022;2024-03-08T05:17:32;5.07;;;4.57;;
14396;SDS011;50653;47.810;13.022;2024-03-08T05:19:58;4.67;;;4.33;;
14396;SDS011;50653;47.810;13.022;2024-03-08T05:22:23;4.80;;;4.37;;
14396;SDS011;50653;47.810;13.022;2024-03-08T05:24:49;5.13;;;4.83;;
14396;SDS011;50653;47.810;13.022;2024-03-08T05:27:15;7.23;;;3.93;;
14396;SDS011;50653;47.810;13.022;2024-03-08T05:29:41;3.40;;;3.10;;
14396;SDS011;50653;47.810;13.022;2024-03-08T05:32:07;3.40;;;3.10;;
14396;SDS011;50653;47.810;13.022;2024-03-08T05:34:32;4.03;;;3.73;;
14396;SDS011;50653;47.810;13.022;2024-03-08T05:36:58;4.27;;;3.87;;
14396;SDS011;50653;47.810;13.022;2024-03-08T05:39:25;5.20;;;3.70;;
14396;SDS011;50653;47.810;13.022;2024-03-08T05:41:50;3.17;;;2.97;;
14396;SDS011;50653;47.810;13.022;2024-03-08T05:44:16;6.40;;;3.90;;
14396;SDS011;50653;47.810;13.022;2024-03-08T05:46:42;3.80;;;3.50;;
14396;SDS011;50653;47.810;13.022;2024-03-08T05:49:08;7.20;;;4.33;;
14396;SDS011;50653;47.810;13.022;2024-03-08T05:51:35;4.80;;;4.40;;
14396;SDS011;50653;47.810;13.022;2024-03-08T05:54:06;6.90;;;4.80;;
14396;SDS011;50653;47.810;13.022;2024-03-08T05:56:35;5.47;;;5.03;;
14396;SDS011;50653;47.810;13.022;2024-03-08T05:59:01;7.50;;;5.10;;
14396;SDS011;50653;47.810;13.022;2024-03-08T06:01:27;6.07;;;5.30;;
14396;SDS011;50653;47.810;13.022;2024-03-08T06:03:53;6.83;;;5.83;;
14396;SDS011;50653;47.810;13.022;2024-03-08T06:06:23;7.03;;;4.53;;
14396;SDS011;50653;47.810;13.022;2024-03-08T06:08:49;5.30;;;4.90;;
14396;SDS011;50653;47.810;13.022;2024-03-08T06:11:16;4.33;;;3.93;;
14396;SDS011;50653;47.810;13.022;2024-03-08T06:13:43;9.73;;;5.00;;
14396;SDS011;50653;47.810;13.022;2024-03-08T06:16:09;4.80;;;4.40;;
14396;SDS011;50653;47.810;13.022;2024-03-08T06:18:35;5.60;;;5.10;;
14396;SDS011;50653;47.810;13.022;2024-03-08T06:21:07;4.37;;;3.97;;
14396;SDS011;50653;47.810;13.022;2024-03-08T06:23:37;4.90;;;4.50;;
14396;SDS011;50653;47.810;13.022;2024-03-08T06:26:06;4.27;;;3.97;;
14396;SDS011;50653;47.810;13.022;2024-03-08T06:28:35;4.07;;;3.67;;
14396;SDS011;50653;47.810;13.022;2024-03-08T06:31:01;3.23;;;3.03;;
14396;SDS011;50653;47.810;13.022;2024-03-08T06:33:27;4.67;;;4.23;;
14396;SDS011;50653;47.810;13.022;2024-03-08T06:35:54;2.93;;;2.70;;
14396;SDS011;50653;47.810;13.022;2024-03-08T06:38:25;2.80;;;2.60;;
14396;SDS011;50653;47.810;13.022;2024-03-08T06:40:51;5.43;;;3.37;;
14396;SDS011;50653;47.810;13.022;2024-03-08T06:43:17;3.33;;;3.10;;
14396;SDS011;50653;47.810;13.022;2024-03-08T06:45:44;4.07;;;3.73;;
14396;SDS011;50653;47.810;13.022;2024-03-08T06:48:16;3.47;;;3.20;;
14396;SDS011;50653;47.810;13.022;2024-03-08T06:50:45;4.00;;;3.70;;
14396;SDS011;50653;47.810;13.022;2024-03-08T06:53:12;3.67;;;3.37;;
14396;SDS011;50653;47.810;13.022;2024-03-08T06:55:39;4.20;;;2.93;;
14396;SDS011;50653;47.810;13.022;2024-03-08T06:58:05;3.13;;;2.93;;
14396;SDS011;50653;47.810;13.022;2024-03-08T07:00:32;4.30;;;4.00;;
14396;SDS011;50653;47.810;13.022;2024-03-08T07:02:58;4.50;;;3.90;;
14396;SDS011;50653;47.810;13.022;2024-03-08T07:05:29;2.90;;;2.70;;
14396;SDS011;50653;47.810;13.022;2024-03-08T07:07:55;4.20;;;3.53;;
14396;SDS011;50653;47.810;13.022;2024-03-08T07:10:23;5.20;;;4.70;;
14396;SDS011;50653;47.810;13.022;2024-03-08T07:12:52;4.40;;;3.87;;
14396;SDS011;50653;47.810;13.022;2024-03-08T07:15:20;6.13;;;5.23;;
14396;SDS011;50653;47.810;13.022;2024-03-08T07:17:46;5.40;;;4.90;;
14396;SDS011;50653;47.810;13.022;2024-03-08T07:20:13;4.40;;;4.10;;
14396;SDS011;50653;47.810;13.022;2024-03-08T07:22:40;5.65;;;5.13;;
14396;SDS011;50653;47.810;13.022;2024-03-08T07:25:06;5.97;;;5.33;;
14396;SDS011;50653;47.810;13.022;2024-03-08T07:27:33;5.23;;;3.97;;
14396;SDS011;50653;47.810;13.022;2024-03-08T07:30:02;5.50;;;5.00;;
14396;SDS011;50653;47.810;13.022;2024-03-08T07:32:28;5.20;;;4.80;;
14396;SDS011;50653;47.810;13.022;2024-03-08T07:34:55;3.37;;;3.17;;
14396;SDS011;50653;47.810;13.022;2024-03-08T07:37:21;4.07;;;3.67;;
14396;SDS011;50653;47.810;13.022;2024-03-08T07:39:47;4.00;;;3.70;;
14396;SDS011;50653;47.810;13.022;2024-03-08T07:42:12;3.10;;;2.90;;
14396;SDS011;50653;47.810;13.022;2024-03-08T07:44:38;3.40;;;2.57;;
14396;SDS011;50653;47.810;13.022;2024-03-08T07:47:05;2.43;;;2.23;;
14396;SDS011;50653;47.810;13.022;2024-03-08T07:49:34;2.73;;;2.53;;
14396;SDS011;50653;47.810;13.022;2024-03-08T07:52:00;3.60;;;3.30;;
14396;SDS011;50653;47.810;13.022;2024-03-08T07:54:26;4.13;;;3.10;;
14396;SDS011;50653;47.810;13.022;2024-03-08T07:56:52;2.87;;;2.67;;
14396;SDS011;50653;47.810;13.022;2024-03-08T07:59:18;3.70;;;3.20;;
14396;SDS011;50653;47.810;13.022;2024-03-08T08:01:44;3.60;;;3.30;;
14396;SDS011;50653;47.810;13.022;2024-03-08T08:04:10;3.63;;;3.33;;
14396;SDS011;50653;47.810;13.022;2024-03-08T08:06:40;5.20;;;3.90;;
14396;SDS011;50653;47.810;13.022;2024-03-08T08:09:09;3.90;;;3.60;;
14396;SDS011;50653;47.810;13.022;2024-03-08T08:11:39;3.97;;;3.63;;
14396;SDS011;50653;47.810;13.022;2024-03-08T08:14:09;3.87;;;3.47;;
14396;SDS011;50653;47.810;13.022;2024-03-08T08:16:35;3.57;;;3.27;;
14396;SDS011;50653;47.810;13.022;2024-03-08T08:19:02;3.70;;;3.40;;
14396;SDS011;50653;47.810;13.022;2024-03-08T08:21:35;3.50;;;3.20;;
14396;SDS011;50653;47.810;13.022;2024-03-08T08:24:02;3.30;;;3.10;;
14396;SDS011;50653;47.810;13.022;2024-03-08T08:26:28;3.77;;;3.47;;
14396;SDS011;50653;47.810;13.022;2024-03-08T08:28:54;4.73;;;4.40;;
14396;SDS011;50653;47.810;13.022;2024-03-08T08:31:20;4.20;;;3.90;;
14396;SDS011;50653;47.810;13.022;2024-03-08T08:33:46;3.77;;;3.40;;
14396;SDS011;50653;47.810;13.022;2024-03-08T08:36:13;4.00;;;3.50;;
14396;SDS011;50653;47.810;13.022;2024-03-08T08:38:39;3.07;;;2.87;;
14396;SDS011;50653;47.810;13.022;2024-03-08T08:41:04;3.40;;;3.20;;
14396;SDS011;50653;47.810;13.022;2024-03-08T08:43:31;4.63;;;4.33;;
14396;SDS011;50653;47.810;13.022;2024-03-08T08:45:58;3.97;;;3.63;;
14396;SDS011;50653;47.810;13.022;2024-03-08T08:48:24;3.93;;;3.63;;
14396;SDS011;50653;47.810;13.022;2024-03-08T08:50:50;3.73;;;3.33;;
14396;SDS011;50653;47.810;13.022;2024-03-08T08:53:17;3.70;;;2.90;;
14396;SDS011;50653;47.810;13.022;2024-03-08T08:55:43;4.77;;;3.50;;
14396;SDS011;50653;47.810;13.022;2024-03-08T08:58:11;4.10;;;3.30;;
14396;SDS011;50653;47.810;13.022;2024-03-08T09:00:37;2.90;;;2.70;;
14396;SDS011;50653;47.810;13.022;2024-03-08T09:03:03;3.80;;;3.13;;
14396;SDS011;50653;47.810;13.022;2024-03-08T09:05:28;3.53;;;3.23;;
14396;SDS011;50653;47.810;13.022;2024-03-08T09:07:54;3.30;;;3.10;;
14396;SDS011;50653;47.810;13.022;2024-03-08T09:10:20;5.03;;;4.07;;
14396;SDS011;50653;47.810;13.022;2024-03-08T09:12:46;3.53;;;3.33;;
14396;SDS011;50653;47.810;13.022;2024-03-08T09:15:12;4.27;;;3.90;;
14396;SDS011;50653;47.810;13.022;2024-03-08T09:17:38;4.07;;;3.43;;
14396;SDS011;50653;47.810;13.022;2024-03-08T09:20:09;3.57;;;3.27;;
14396;SDS011;50653;47.810;13.022;2024-03-08T09:22:39;3.50;;;3.30;;
14396;SDS011;50653;47.810;13.022;2024-03-08T09:25:06;4.50;;;4.10;;
14396;SDS011;50653;47.810;13.022;2024-03-08T09:27:32;4.23;;;3.93;;
14396;SDS011;50653;47.810;13.022;2024-03-08T09:29:59;3.13;;;2.93;;
14396;SDS011;50653;47.810;13.022;2024-03-08T09:32:25;4.53;;;4.23;;
14396;SDS011;50653;47.810;13.022;2024-03-08T09:34:51;4.27;;;3.97;;
14396;SDS011;50653;47.810;13.022;2024-03-08T09:37:17;3.37;;;3.17;;
14396;SDS011;50653;47.810;13.022;2024-03-08T09:39:44;3.83;;;3.53;;
14396;SDS011;50653;47.810;13.022;2024-03-08T09:42:10;3.17;;;2.97;;
14396;SDS011;50653;47.810;13.022;2024-03-08T09:44:43;3.03;;;2.80;;
14396;SDS011;50653;47.810;13.022;2024-03-08T09:47:15;2.93;;;2.40;;
14396;SDS011;50653;47.810;13.022;2024-03-08T09:49:41;2.70;;;2.50;;
14396;SDS011;50653;47.810;13.022;2024-03-08T09:52:08;2.67;;;2.47;;
14396;SDS011;50653;47.810;13.022;2024-03-08T09:54:35;2.93;;;2.80;;
14396;SDS011;50653;47.810;13.022;2024-03-08T09:57:01;2.57;;;2.37;;
14396;SDS011;50653;47.810;13.022;2024-03-08T09:59:29;2.33;;;2.23;;
14396;SDS011;50653;47.810;13.022;2024-03-08T10:02:13;3.13;;;2.80;;
14396;SDS011;50653;47.810;13.022;2024-03-08T10:04:40;3.20;;;3.00;;
14396;SDS011;50653;47.810;13.022;2024-03-08T10:07:07;3.00;;;2.80;;
14396;SDS011;50653;47.810;13.022;2024-03-08T10:09:33;7.00;;;3.70;;
14396;SDS011;50653;47.810;13.022;2024-03-08T10:11:59;3.67;;;3.40;;
14396;SDS011;50653;47.810;13.022;2024-03-08T10:14:25;3.50;;;3.23;;
14396;SDS011;50653;47.810;13.022;2024-03-08T10:16:53;3.70;;;3.40;;
14396;SDS011;50653;47.810;13.022;2024-03-08T10:19:20;3.73;;;3.53;;
14396;SDS011;50653;47.810;13.022;2024-03-08T10:21:49;5.20;;;3.63;;
14396;SDS011;50653;47.810;13.022;2024-03-08T10:24:15;4.17;;;3.40;;
14396;SDS011;50653;47.810;13.022;2024-03-08T10:26:40;4.33;;;3.83;;
14396;SDS011;50653;47.810;13.022;2024-03-08T10:29:08;4.77;;;4.37;;
14396;SDS011;50653;47.810;13.022;2024-03-08T10:31:34;7.60;;;5.47;;
14396;SDS011;50653;47.810;13.022;2024-03-08T10:34:00;8.07;;;7.30;;
14396;SDS011;50653;47.810;13.022;2024-03-08T10:36:27;6.07;;;5.57;;
14396;SDS011;50653;47.810;13.022;2024-03-08T10:38:53;6.30;;;5.80;;
14396;SDS011;50653;47.810;13.022;2024-03-08T10:41:22;6.87;;;5.63;;
14396;SDS011;50653;47.810;13.022;2024-03-08T10:46:52;7.20;;;6.57;;
14396;SDS011;50653;47.810;13.022;2024-03-08T10:49:31;8.07;;;7.27;;
14396;SDS011;50653;47.810;13.022;2024-03-08T10:52:04;10.07;;;8.10;;
14396;SDS011;50653;47.810;13.022;2024-03-08T10:54:37;7.70;;;7.00;;
14396;SDS011;50653;47.810;13.022;2024-03-08T10:57:05;10.63;;;8.60;;
14396;SDS011;50653;47.810;13.022;2024-03-08T10:59:31;11.43;;;7.07;;
14396;SDS011;50653;47.810;13.022;2024-03-08T11:01:59;10.20;;;8.37;;
14396;SDS011;50653;47.810;13.022;2024-03-08T11:04:25;11.00;;;8.40;;
14396;SDS011;50653;47.810;13.022;2024-03-08T11:06:51;10.87;;;9.63;;
14396;SDS011;50653;47.810;13.022;2024-03-08T11:09:35;13.00;;;10.30;;
14396;SDS011;50653;47.810;13.022;2024-03-08T11:14:51;15.30;;;10.97;;
14396;SDS011;50653;47.810;13.022;2024-03-08T11:17:25;17.43;;;10.17;;
14396;SDS011;50653;47.810;13.022;2024-03-08T11:22:40;16.17;;;11.60;;
14396;SDS011;50653;47.810;13.022;2024-03-08T11:25:36;16.60;;;11.30;;
14396;SDS011;50653;47.810;13.022;2024-03-08T11:28:10;15.43;;;9.97;;
14396;SDS011;50653;47.810;13.022;2024-03-08T11:33:28;12.80;;;10.37;;
14396;SDS011;50653;47.810;13.022;2024-03-08T11:36:09;12.17;;;9.63;;
14396;SDS011;50653;47.810;13.022;2024-03-08T11:38:47;11.80;;;9.00;;
14396;SDS011;50653;47.810;13.022;2024-03-08T11:41:17;12.80;;;10.93;;
14396;SDS011;50653;47.810;13.022;2024-03-08T11:43:46;13.10;;;11.53;;
14396;SDS011;50653;47.810;13.022;2024-03-08T11:46:13;23.53;;;14.77;;
14396;SDS011;50653;47.810;13.022;2024-03-08T11:48:43;18.90;;;13.90;;
14396;SDS011;50653;47.810;13.022;2024-03-08T11:51:13;21.73;;;15.10;;
14396;SDS011;50653;47.810;13.022;2024-03-08T11:53:40;20.80;;;12.97;;
14396;SDS011;50653;47.810;13.022;2024-03-08T11:56:12;20.03;;;13.90;;
14396;SDS011;50653;47.810;13.022;2024-03-08T11:58:39;17.50;;;13.20;;
14396;SDS011;50653;47.810;13.022;2024-03-08T12:01:05;19.40;;;13.97;;
14396;SDS011;50653;47.810;13.022;2024-03-08T12:03:38;17.90;;;12.43;;
14396;SDS011;50653;47.810;13.022;2024-03-08T12:06:04;13.30;;;11.90;;
14396;SDS011;50653;47.810;13.022;2024-03-08T12:08:30;16.20;;;12.67;;
14396;SDS011;50653;47.810;13.022;2024-03-08T12:10:57;20.83;;;13.73;;
14396;SDS011;50653;47.810;13.022;2024-03-08T12:13:30;21.03;;;13.60;;
14396;SDS011;50653;47.810;13.022;2024-03-08T12:15:59;19.20;;;14.47;;
14396;SDS011;50653;47.810;13.022;2024-03-08T12:18:28;20.03;;;14.13;;
14396;SDS011;50653;47.810;13.022;2024-03-08T12:21:07;19.27;;;14.63;;
14396;SDS011;50653;47.810;13.022;2024-03-08T12:23:35;19.47;;;14.50;;
14396;SDS011;50653;47.810;13.022;2024-03-08T12:26:12;16.40;;;13.97;;
14396;SDS011;50653;47.810;13.022;2024-03-08T12:28:42;19.37;;;14.00;;
14396;SDS011;50653;47.810;13.022;2024-03-08T12:31:11;21.33;;;15.90;;
14396;SDS011;50653;47.810;13.022;2024-03-08T12:33:46;22.03;;;14.87;;
14396;SDS011;50653;47.810;13.022;2024-03-08T12:36:14;22.40;;;15.43;;
14396;SDS011;50653;47.810;13.022;2024-03-08T12:38:43;17.50;;;12.80;;
14396;SDS011;50653;47.810;13.022;2024-03-08T12:41:09;15.10;;;12.23;;
14396;SDS011;50653;47.810;13.022;2024-03-08T12:43:35;16.43;;;12.70;;
14396;SDS011;50653;47.810;13.022;2024-03-08T12:46:00;19.83;;;14.83;;
14396;SDS011;50653;47.810;13.022;2024-03-08T12:48:26;18.83;;;13.23;;
14396;SDS011;50653;47.810;13.022;2024-03-08T12:50:52;18.27;;;13.97;;
14396;SDS011;50653;47.810;13.022;2024-03-08T12:53:19;19.10;;;14.80;;
14396;SDS011;50653;47.810;13.022;2024-03-08T12:55:45;18.13;;;12.00;;
14396;SDS011;50653;47.810;13.022;2024-03-08T12:58:11;18.00;;;13.00;;
14396;SDS011;50653;47.810;13.022;2024-03-08T13:00:37;18.00;;;12.03;;
14396;SDS011;50653;47.810;13.022;2024-03-08T13:03:05;17.53;;;12.50;;
14396;SDS011;50653;47.810;13.022;2024-03-08T13:05:31;11.80;;;10.70;;
14396;SDS011;50653;47.810;13.022;2024-03-08T13:07:57;15.00;;;11.77;;
14396;SDS011;50653;47.810;13.022;2024-03-08T13:10:23;16.10;;;12.60;;
14396;SDS011;50653;47.810;13.022;2024-03-08T13:12:48;15.53;;;10.40;;
14396;SDS011;50653;47.810;13.022;2024-03-08T13:15:14;16.37;;;10.50;;
14396;SDS011;50653;47.810;13.022;2024-03-08T13:17:45;9.17;;;8.30;;
14396;SDS011;50653;47.810;13.022;2024-03-08T13:20:14;10.00;;;8.73;;
14396;SDS011;50653;47.810;13.022;2024-03-08T13:22:47;12.60;;;10.67;;
14396;SDS011;50653;47.810;13.022;2024-03-08T13:25:13;12.40;;;9.30;;
14396;SDS011;50653;47.810;13.022;2024-03-08T13:27:41;8.67;;;7.77;;
14396;SDS011;50653;47.810;13.022;2024-03-08T13:30:08;13.20;;;8.70;;
14396;SDS011;50653;47.810;13.022;2024-03-08T13:32:43;14.53;;;8.77;;
14396;SDS011;50653;47.810;13.022;2024-03-08T13:35:10;8.47;;;7.67;;
14396;SDS011;50653;47.810;13.022;2024-03-08T13:37:39;8.70;;;7.20;;
14396;SDS011;50653;47.810;13.022;2024-03-08T13:40:06;9.73;;;7.40;;
14396;SDS011;50653;47.810;13.022;2024-03-08T13:42:36;9.27;;;8.10;;
14396;SDS011;50653;47.810;13.022;2024-03-08T13:45:04;16.13;;;7.17;;
14396;SDS011;50653;47.810;13.022;2024-03-08T13:47:42;6.90;;;6.40;;
14396;SDS011;50653;47.810;13.022;2024-03-08T13:50:08;6.53;;;5.83;;
14396;SDS011;50653;47.810;13.022;2024-03-08T13:52:38;5.80;;;5.30;;
14396;SDS011;50653;47.810;13.022;2024-03-08T13:55:04;5.20;;;4.53;;
14396;SDS011;50653;47.810;13.022;2024-03-08T13:57:31;6.27;;;5.77;;
14396;SDS011;50653;47.810;13.022;2024-03-08T13:59:57;6.73;;;6.13;;
14396;SDS011;50653;47.810;13.022;2024-03-08T14:02:23;6.13;;;5.30;;
14396;SDS011;50653;47.810;13.022;2024-03-08T14:04:53;5.90;;;5.17;;
14396;SDS011;50653;47.810;13.022;2024-03-08T14:07:20;7.40;;;6.67;;
14396;SDS011;50653;47.810;13.022;2024-03-08T14:09:46;7.77;;;7.03;;
14396;SDS011;50653;47.810;13.022;2024-03-08T14:12:12;9.10;;;7.27;;
14396;SDS011;50653;47.810;13.022;2024-03-08T14:14:40;6.77;;;6.27;;
14396;SDS011;50653;47.810;13.022;2024-03-08T14:17:07;8.87;;;6.33;;
14396;SDS011;50653;47.810;13.022;2024-03-08T14:19:35;7.47;;;6.83;;
14396;SDS011;50653;47.810;13.022;2024-03-08T14:22:00;9.90;;;8.90;;
14396;SDS011;50653;47.810;13.022;2024-03-08T14:24:29;14.27;;;8.03;;
14396;SDS011;50653;47.810;13.022;2024-03-08T14:27:00;8.53;;;7.80;;
14396;SDS011;50653;47.810;13.022;2024-03-08T14:29:28;9.30;;;8.37;;
14396;SDS011;50653;47.810;13.022;2024-03-08T14:31:56;8.00;;;7.20;;
14396;SDS011;50653;47.810;13.022;2024-03-08T14:34:24;7.60;;;6.83;;
14396;SDS011;50653;47.810;13.022;2024-03-08T14:36:54;8.63;;;7.00;;
14396;SDS011;50653;47.810;13.022;2024-03-08T14:39:21;6.10;;;5.50;;
14396;SDS011;50653;47.810;13.022;2024-03-08T14:41:51;6.40;;;5.83;;
14396;SDS011;50653;47.810;13.022;2024-03-08T14:44:19;6.80;;;6.20;;